WetterOnline ( https://www.wetteronline.ch )

Wetter aktuell Mainz

Aktuelles Wetter: Frankfurt/Flughafen (113m)

6-stündlich | Neueste Meldungen
Ortszeit Temperatur Wetter
Fr, 03.12. 1:00 1.7° C wolkig
Do, 02.12. 19:00 2.5° C leicht bewölkt
Do, 02.12. 13:00 5.4° C leichte Schauer
Do, 02.12. 7:00 3.7° C leichter Regen
Do, 02.12. 1:00 6.1° C leichte Schauer
Mi, 01.12. 19:00 6.5° C leicht bewölkt
Mi, 01.12. 13:00 8.6° C bewölkt
Mi, 01.12. 7:00 6.2° C leichter Regen
Ortszeit Temperatur Wetter
Fr, 03.12. 2:30 -0.8° C leicht bewölkt
Fr, 03.12. 2:20 -0.8° C leicht bewölkt
Fr, 03.12. 2:10 -0.2° C leicht bewölkt
Fr, 03.12. 2:00 -0.2° C leicht bewölkt
Fr, 03.12. 1:50 -0.2° C leicht bewölkt
Fr, 03.12. 1:40 0.5° C wolkenlos
Fr, 03.12. 1:30 1.0° C leicht bewölkt
Fr, 03.12. 1:00 1.7° C wolkig
Fr, 03.12. 0:30 1.8° C bewölkt
Fr, 03.12. 0:00 1.6° C wolkig
Do, 02.12. 23:30 1.8° C leicht bewölkt
Ortszeit Relative Feuchte Sichtweite
Fr, 03.12. 1:00 77% 35 km
Do, 02.12. 19:00 78% 50 km
Do, 02.12. 13:00 77% 30 km
Do, 02.12. 7:00 91% 40 km
Do, 02.12. 1:00 78% 20 km
Mi, 01.12. 19:00 85% 60 km
Mi, 01.12. 13:00 75% 35 km
Mi, 01.12. 7:00 80% 20 km
Ortszeit Relative Feuchte Sichtweite
Fr, 03.12. 2:30 87% 35 km
Fr, 03.12. 2:20 87% -
Fr, 03.12. 2:10 82% -
Fr, 03.12. 2:00 84% 40 km
Fr, 03.12. 1:50 84% -
Fr, 03.12. 1:40 81% -
Fr, 03.12. 1:30 79% 50 km
Fr, 03.12. 1:00 77% 35 km
Fr, 03.12. 0:30 78% 55 km
Fr, 03.12. 0:00 80% 35 km
Do, 02.12. 23:30 81% 50 km
Ortszeit Niederschlagsmenge Niederschlagsart
Fr, 03.12. 1:00 0.1 l/m2 in 6 Std. Schauer
Do, 02.12. 19:00 1 l/m2 in 12 Std. Schauer
Do, 02.12. 13:00 1 l/m2 in 6 Std. Regenschauer
Do, 02.12. 7:00 0.6 l/m2 in 12 Std. Regenschauer
Do, 02.12. 1:00 0.1 l/m2 in 6 Std. Schauer
Mi, 01.12. 19:00 0.5 l/m2 in 12 Std. Regenschauer
Mi, 01.12. 13:00 0.1 l/m2 in 6 Std. Regen
Mi, 01.12. 7:00 0.4 l/m2 in 12 Std. Regen
Ortszeit Niederschlagsmenge Niederschlagsart
Fr, 03.12. 2:30 0.0 l/m2 in 1 Std. -
Fr, 03.12. 2:20 keine Meldung -
Fr, 03.12. 2:10 keine Meldung -
Fr, 03.12. 2:00 0.0 l/m2 in 1 Std. -
Fr, 03.12. 1:50 keine Meldung -
Fr, 03.12. 1:40 keine Meldung -
Fr, 03.12. 1:30 0.0 l/m2 in 1 Std. -
Fr, 03.12. 1:00 0.0 l/m2 in 1 Std. Schauer
Fr, 03.12. 0:30 0.0 l/m2 in 1 Std. -
Fr, 03.12. 0:00 0.0 l/m2 in 1 Std. -
Do, 02.12. 23:30 0.0 l/m2 in 1 Std. -
Ortszeit Stärke Spitze Richtung
km/h Bft. km/h Grad Sektor
Fr, 03.12. 1:00 14 3 29 310° NW
Do, 02.12. 19:00 17 3 35 300° NW
Do, 02.12. 13:00 7 2 29 330° NW
Do, 02.12. 7:00 13 3 22 210° SW
Do, 02.12. 1:00 17 3 46 260° W
Mi, 01.12. 19:00 22 4 61 220° SW
Mi, 01.12. 13:00 33 5 54 220° SW
Mi, 01.12. 7:00 33 5 57 220° SW
Ortszeit Stärke Spitze Richtung
km/h Bft. km/h Grad Sektor
Fr, 03.12. 2:30 9 2 15 270° W
Fr, 03.12. 2:20 9 2 - 270° W
Fr, 03.12. 2:10 9 2 - 300° NW
Fr, 03.12. 2:00 7 2 29 280° W
Fr, 03.12. 1:50 7 2 - 280° W
Fr, 03.12. 1:40 11 2 - 310° NW
Fr, 03.12. 1:30 15 3 28 320° NW
Fr, 03.12. 1:00 14 3 25 310° NW
Fr, 03.12. 0:30 14 3 22 290° W
Fr, 03.12. 0:00 13 3 22 300° NW
Do, 02.12. 23:30 13 3 22 300° NW
Ortszeit Untergrenze Bedeckung Gattung
total tief tief mittel hoch
Fr, 03.12. 1:00 420 m 6/8 6/8 Cu - -
Do, 02.12. 19:00 540 m 3/8 3/8 Cu - -
Do, 02.12. 13:00 240 m 7/8 5/8 Cb Ac -
Do, 02.12. 7:00 270 m 8/8 7/8 Cu - -
Do, 02.12. 1:00 750 m 7/8 6/8 Cb Ac -
Mi, 01.12. 19:00 1140 m 5/8 3/8 Sc Ac -
Mi, 01.12. 13:00 420 m 7/8 7/8 Cu - -
Mi, 01.12. 7:00 300 m 8/8 8/8 Sc - -
Ortszeit Bedeckungsgrad in Achtel und Wolkenuntergrenze
Fr, 03.12. 2:30 2(1350m)
Fr, 03.12. 2:20 2(1350m)
Fr, 03.12. 2:10 4(1350m)
Fr, 03.12. 2:00 1(450m) 3(1260m)
Fr, 03.12. 1:50 4(1380m)
Fr, 03.12. 1:40 keine Wolken
Fr, 03.12. 1:30 3(1440m)
Fr, 03.12. 1:00 1(420m) 5(1350m)
Fr, 03.12. 0:30 7(1290m)
Fr, 03.12. 0:00 1(420m) 4(1200m)
Do, 02.12. 23:30 2(510m) 4(1170m)
Ortszeit Luftdruck NN (hPa) Tendenz (hPa in 3 Std.)
Fr, 03.12. 1:00 1012 + 2,6
Do, 02.12. 19:00 1007 + 3,1
Do, 02.12. 13:00 1001 + 0,6
Do, 02.12. 7:00 1000 - 0,2
Do, 02.12. 1:00 999 + 1,1
Mi, 01.12. 19:00 996 + 1,7
Mi, 01.12. 13:00 996 - 3,5
Mi, 01.12. 7:00 1004 - 3,1
Ortszeit Luftdruck NN (hPa) Tendenz (hPa in 3 Std.)
Fr, 03.12. 2:30 1013 + 2,0
Fr, 03.12. 2:20 1013 keine Meldung
Fr, 03.12. 2:10 1013 keine Meldung
Fr, 03.12. 2:00 1013 + 2,4
Fr, 03.12. 1:50 1013 keine Meldung
Fr, 03.12. 1:40 1013 keine Meldung
Fr, 03.12. 1:30 1012 + 2,5
Fr, 03.12. 1:00 1012 + 2,6
Fr, 03.12. 0:30 1011 + 2,4
Fr, 03.12. 0:00 1011 + 2,7
Do, 02.12. 23:30 1011 + 2,8
Ortszeit Schneehöhe (cm)
Fr, 03.12. 1:00 0
Do, 02.12. 19:00 0
Do, 02.12. 13:00 0
Do, 02.12. 7:00 0
Do, 02.12. 1:00 0
Mi, 01.12. 19:00 0
Mi, 01.12. 13:00 0
Mi, 01.12. 7:00 0
Ortszeit Schneehöhe (cm)
Fr, 03.12. 2:30 0
Fr, 03.12. 2:20 0
Fr, 03.12. 2:10 0
Fr, 03.12. 2:00 0
Fr, 03.12. 1:50 0
Fr, 03.12. 1:40 0
Fr, 03.12. 1:30 0
Fr, 03.12. 1:00 0
Fr, 03.12. 0:30 0
Fr, 03.12. 0:00 0
Do, 02.12. 23:30 0
Link zu dieser Seite / Seite empfehlen

Das Wetter in ...